Time;durP1;ratioP1;P1;durP2;ratioP2;P2;SDS_P1;SDS_P2;PMS_P1;PMS_P2;Temp;Humidity;BMP_temperature;BMP_pressure;BME280_temperature;BME280_humidity;BME280_pressure;Samples;Min_cycle;Max_cycle;Signal;HPM_P1;HPM_P2
2022/01/10 00:00:11;;;;;;;44.20;25.27;;;51.60;2227.20;;;;;;5034553;28;20095;-66
2022/01/10 00:02:37;;;;;;;42.17;25.53;;;51.60;2227.20;;;;;;5034435;28;20033;-67
2022/01/10 00:05:04;;;;;;;44.10;25.50;;;51.60;2227.20;;;;;;5034672;28;20040;-66
2022/01/10 00:07:30;;;;;;;44.00;24.73;;;51.60;2227.20;;;;;;5034158;28;20029;-66
2022/01/10 00:09:56;;;;;;;40.80;23.93;;;51.60;2227.20;;;;;;5034148;28;20037;-66
2022/01/10 00:12:22;;;;;;;43.27;25.03;;;51.60;2227.20;;;;;;5034385;28;20025;-66
2022/01/10 00:14:48;;;;;;;41.47;24.43;;;51.60;2227.20;;;;;;5035290;28;20026;-75
2022/01/10 00:17:14;;;;;;;39.57;23.13;;;51.60;2227.20;;;;;;5034949;28;20025;-67
2022/01/10 00:19:40;;;;;;;38.03;23.20;;;51.60;2227.20;;;;;;5034878;28;20109;-66
2022/01/10 00:22:10;;;;;;;39.87;23.70;;;51.60;2227.20;;;;;;5035291;28;20208;-66
2022/01/10 00:24:36;;;;;;;40.63;23.47;;;51.60;2227.20;;;;;;5034786;28;20047;-66
2022/01/10 00:27:02;;;;;;;38.60;23.07;;;51.60;2227.20;;;;;;5034382;28;20021;-66
2022/01/10 00:29:28;;;;;;;38.80;23.70;;;51.60;2227.20;;;;;;5034684;28;20202;-66
2022/01/10 00:31:57;;;;;;;39.37;23.47;;;51.60;2227.20;;;;;;5034814;28;20482;-77
2022/01/10 00:34:24;;;;;;;38.73;23.00;;;51.60;2227.20;;;;;;5034266;28;20103;-66
2022/01/10 00:36:50;;;;;;;41.87;25.10;;;51.60;2227.20;;;;;;5034000;28;20026;-66
2022/01/10 00:39:16;;;;;;;36.60;23.47;;;51.50;2227.20;;;;;;5035888;28;20069;-68
2022/01/10 00:41:44;;;;;;;38.47;22.57;;;51.50;2227.20;;;;;;5035447;28;20109;-66
2022/01/10 00:44:10;;;;;;;33.17;21.27;;;51.50;2227.20;;;;;;5035966;28;20037;-66
2022/01/10 00:46:36;;;;;;;33.17;20.03;;;51.50;2227.20;;;;;;5035468;28;20394;-66
2022/01/10 00:49:02;;;;;;;33.67;21.67;;;51.50;2227.20;;;;;;5034355;28;20025;-66
2022/01/10 00:51:29;;;;;;;35.47;21.73;;;51.50;2227.20;;;;;;5036141;28;20371;-66
2022/01/10 00:53:55;;;;;;;31.17;21.00;;;51.50;2227.20;;;;;;5035169;28;20117;-76
2022/01/10 00:56:21;;;;;;;31.60;20.73;;;51.50;2227.20;;;;;;5034739;28;20096;-66
2022/01/10 00:58:47;;;;;;;34.40;21.33;;;51.40;2227.20;;;;;;5016734;28;20444;-66
2022/01/10 01:01:15;;;;;;;33.27;21.43;;;51.40;2227.20;;;;;;5033874;28;20026;-66
2022/01/10 01:03:41;;;;;;;32.73;20.40;;;51.40;2227.20;;;;;;5034594;28;20116;-75
2022/01/10 01:06:07;;;;;;;30.23;19.70;;;51.40;2227.20;;;;;;5035153;28;20029;-71
2022/01/10 01:08:34;;;;;;;33.47;21.73;;;51.40;2227.20;;;;;;5035982;28;20037;-66
2022/01/10 01:13:58;;;;;;;31.10;18.63;;;51.40;2227.20;;;;;;5035253;28;20486;-66
2022/01/10 01:24:28;;;;;;;30.30;19.37;;;51.40;2227.20;;;;;;5036355;28;20121;-66
2022/01/10 01:26:54;;;;;;;30.37;18.93;;;51.30;2227.20;;;;;;5034784;28;20611;-67
2022/01/10 01:29:30;;;;;;;30.37;18.23;;;51.30;2227.20;;;;;;5034262;28;20021;-66
2022/01/10 01:31:57;;;;;;;30.63;18.80;;;51.30;2227.20;;;;;;5033827;28;20640;-67
2022/01/10 01:34:24;;;;;;;30.00;18.43;;;51.40;2227.20;;;;;;5016552;28;20101;-66
2022/01/10 01:36:54;;;;;;;33.30;20.07;;;51.40;2227.20;;;;;;5033749;28;20551;-67
2022/01/10 01:39:23;;;;;;;44.00;22.33;;;51.40;2227.20;;;;;;5033860;28;20025;-67
2022/01/10 01:41:56;;;;;;;37.07;21.97;;;51.40;2227.20;;;;;;5034326;28;20028;-76
2022/01/10 01:44:23;;;;;;;29.02;18.92;;;51.40;2227.20;;;;;;5035003;28;20120;-66
2022/01/10 01:46:49;;;;;;;31.70;20.13;;;51.40;2227.20;;;;;;5033558;28;20030;-75
2022/01/10 01:49:15;;;;;;;28.37;17.20;;;51.40;2227.20;;;;;;5033939;28;20022;-66
2022/01/10 01:51:41;;;;;;;28.07;18.10;;;51.30;2227.20;;;;;;5034730;28;20022;-76
2022/01/10 01:54:09;;;;;;;30.17;18.90;;;51.30;2227.20;;;;;;5033794;28;20045;-61
2022/01/10 01:56:36;;;;;;;33.77;20.97;;;51.30;2227.20;;;;;;5032718;28;20110;-65
2022/01/10 01:59:04;;;;;;;36.40;19.10;;;51.30;2227.20;;;;;;5032767;28;20021;-65
2022/01/10 02:01:30;;;;;;;28.40;18.20;;;51.30;2227.20;;;;;;5034647;28;20104;-64
2022/01/10 02:03:56;;;;;;;28.87;16.77;;;51.20;2227.20;;;;;;5036318;28;20073;-65
2022/01/10 02:06:22;;;;;;;31.03;19.30;;;51.20;2227.20;;;;;;5036417;28;20072;-65
2022/01/10 02:08:48;;;;;;;30.10;18.87;;;51.20;2227.20;;;;;;5036137;28;20032;-72
2022/01/10 02:11:14;;;;;;;33.10;19.60;;;51.20;2227.20;;;;;;5036060;28;20108;-65
2022/01/10 02:13:41;;;;;;;32.33;19.07;;;51.30;2227.20;;;;;;5036359;28;20128;-65
2022/01/10 02:16:10;;;;;;;29.77;17.97;;;51.30;2227.20;;;;;;5036005;28;20482;-65
2022/01/10 02:18:37;;;;;;;32.33;19.17;;;51.30;2227.20;;;;;;5036269;28;20022;-65
2022/01/10 02:21:05;;;;;;;29.10;18.90;;;51.20;2227.20;;;;;;5035720;28;20041;-65
2022/01/10 02:23:32;;;;;;;30.23;19.03;;;51.20;2227.20;;;;;;5035715;28;20494;-65
2022/01/10 02:25:58;;;;;;;30.30;19.27;;;51.20;2227.20;;;;;;5035747;28;20021;-65
2022/01/10 02:28:25;;;;;;;32.30;19.63;;;51.20;2227.20;;;;;;5036138;28;20471;-65
2022/01/10 02:30:56;;;;;;;29.43;18.97;;;51.20;2227.20;;;;;;5035622;28;20025;-73
2022/01/10 02:33:27;;;;;;;28.50;17.93;;;51.20;2227.20;;;;;;5035696;28;20366;-65
2022/01/10 02:38:49;;;;;;;23.70;15.90;;;51.20;2227.20;;;;;;5036134;28;20062;-65
2022/01/10 02:41:25;;;;;;;27.23;16.47;;;51.20;2227.20;;;;;;5035606;28;20176;-65
2022/01/10 02:43:53;;;;;;;21.80;13.90;;;51.20;2227.20;;;;;;5035423;28;20039;-65
2022/01/10 02:46:19;;;;;;;23.43;14.93;;;51.20;2227.20;;;;;;5035687;28;20030;-65
2022/01/10 02:48:45;;;;;;;24.60;15.13;;;51.20;2227.20;;;;;;5035600;28;20112;-65
2022/01/10 02:51:11;;;;;;;24.90;15.80;;;51.30;2227.20;;;;;;5035347;28;20033;-65
2022/01/10 02:53:37;;;;;;;23.70;16.50;;;51.30;2227.20;;;;;;5035302;28;20021;-65
2022/01/10 02:56:04;;;;;;;26.00;16.53;;;51.30;2227.20;;;;;;5035303;28;20482;-65
2022/01/10 02:58:30;;;;;;;26.27;17.43;;;51.30;2227.20;;;;;;5035249;28;20040;-65
2022/01/10 03:00:56;;;;;;;28.93;17.63;;;51.30;2227.20;;;;;;5035427;28;20021;-73
2022/01/10 03:03:22;;;;;;;25.80;16.87;;;51.30;2227.20;;;;;;5035312;28;20437;-73
2022/01/10 03:05:48;;;;;;;27.60;16.43;;;51.40;2227.20;;;;;;5035008;28;20479;-72
2022/01/10 03:08:14;;;;;;;25.57;16.17;;;51.30;2227.20;;;;;;5034996;28;20034;-65
2022/01/10 03:10:39;;;;;;;29.00;17.60;;;51.30;2227.20;;;;;;5034967;28;20025;-64
2022/01/10 03:13:05;;;;;;;27.97;18.00;;;51.40;2227.20;;;;;;5034708;28;20497;-65
2022/01/10 03:15:31;;;;;;;29.87;17.97;;;51.30;2227.20;;;;;;5034952;28;20378;-65
2022/01/10 03:17:57;;;;;;;26.77;16.90;;;51.20;2227.20;;;;;;5034932;28;20094;-66
2022/01/10 03:20:24;;;;;;;28.10;16.70;;;51.20;2227.20;;;;;;5034821;28;20068;-73
2022/01/10 03:22:52;;;;;;;26.97;17.17;;;51.20;2227.20;;;;;;5034496;28;20065;-66
2022/01/10 03:25:18;;;;;;;27.10;17.60;;;51.20;2227.20;;;;;;5034618;28;20033;-65
2022/01/10 03:27:44;;;;;;;27.37;17.47;;;51.20;2227.20;;;;;;5034591;28;20112;-73
2022/01/10 03:30:10;;;;;;;27.87;18.23;;;51.20;2227.20;;;;;;5034632;28;20107;-72
2022/01/10 03:32:37;;;;;;;28.03;18.40;;;51.20;2227.20;;;;;;5034457;28;20032;-72
2022/01/10 03:35:04;;;;;;;29.07;18.47;;;51.20;2227.20;;;;;;5034532;28;20025;-65
2022/01/10 03:37:31;;;;;;;31.13;18.83;;;51.20;2227.20;;;;;;5034467;28;20057;-65
2022/01/10 03:39:57;;;;;;;31.30;18.93;;;51.20;2227.20;;;;;;5034455;28;20371;-66
2022/01/10 03:42:22;;;;;;;31.07;18.63;;;51.20;2227.20;;;;;;5034639;28;20029;-73
2022/01/10 03:44:48;;;;;;;31.87;19.07;;;51.30;2227.20;;;;;;5034444;28;20041;-73
2022/01/10 03:47:17;;;;;;;32.20;20.90;;;51.20;2227.20;;;;;;5016572;28;20144;-65
2022/01/10 03:49:43;;;;;;;30.87;19.07;;;51.20;2227.20;;;;;;5034189;28;20049;-65
2022/01/10 03:52:09;;;;;;;30.23;19.73;;;51.20;2227.20;;;;;;5034249;28;20029;-65
2022/01/10 03:54:35;;;;;;;30.30;19.30;;;51.20;2227.20;;;;;;5034410;28;20466;-65
2022/01/10 03:57:01;;;;;;;30.20;19.23;;;51.20;2227.20;;;;;;5034355;28;20029;-65
2022/01/10 03:59:27;;;;;;;31.13;19.77;;;51.20;2227.20;;;;;;5034017;28;20458;-65
2022/01/10 04:01:54;;;;;;;34.13;21.17;;;51.20;2227.20;;;;;;5034213;28;20026;-65
2022/01/10 04:04:20;;;;;;;31.37;20.23;;;51.20;2227.20;;;;;;5034158;28;20047;-73
2022/01/10 04:06:46;;;;;;;29.93;19.03;;;51.20;2227.20;;;;;;5034186;28;20425;-65
2022/01/10 04:09:11;;;;;;;33.20;20.63;;;51.20;2227.20;;;;;;5033869;28;20505;-65
2022/01/10 04:11:37;;;;;;;33.73;20.40;;;51.20;2227.20;;;;;;5033797;28;20072;-65
2022/01/10 04:14:03;;;;;;;33.30;20.67;;;51.20;2227.20;;;;;;5033809;28;20033;-65
2022/01/10 04:16:29;;;;;;;34.57;21.53;;;26.50;2201.60;;;;;;5033771;28;20490;-65
2022/01/10 04:18:55;;;;;;;32.90;20.57;;;26.40;2201.60;;;;;;5033972;28;20026;-66
2022/01/10 04:21:21;;;;;;;35.77;21.70;;;26.40;2201.60;;;;;;5033557;28;20407;-65
2022/01/10 04:23:47;;;;;;;33.47;20.93;;;26.40;2201.60;;;;;;5032874;28;20048;-68
2022/01/10 04:26:13;;;;;;;32.67;21.03;;;26.50;2201.60;;;;;;5033627;28;20025;-65
2022/01/10 04:28:39;;;;;;;34.30;21.50;;;26.50;2201.60;;;;;;5033576;28;20033;-65
2022/01/10 04:31:05;;;;;;;31.73;19.57;;;26.50;2201.60;;;;;;5033589;28;20061;-65
2022/01/10 04:33:31;;;;;;;31.40;18.93;;;26.50;2201.60;;;;;;5033554;28;20025;-65
2022/01/10 04:35:58;;;;;;;32.70;19.40;;;26.50;2201.60;;;;;;5033523;28;20030;-66
2022/01/10 04:38:24;;;;;;;34.70;20.83;;;26.50;2201.60;;;;;;5033568;28;20036;-74
2022/01/10 04:40:51;;;;;;;35.60;21.23;;;26.50;2201.60;;;;;;5033781;28;20028;-73
2022/01/10 04:43:17;;;;;;;36.03;20.87;;;26.50;2201.60;;;;;;5033513;28;20029;-65
2022/01/10 04:45:43;;;;;;;36.57;22.20;;;26.50;2201.60;;;;;;5033614;28;20105;-65
2022/01/10 04:48:09;;;;;;;36.67;20.93;;;26.50;2201.60;;;;;;5033627;28;20021;-65
2022/01/10 04:51:10;;;;;;;41.60;22.37;;;26.50;2201.60;;;;;;5033581;28;20025;-64
2022/01/10 04:53:30;;;;;;;39.57;22.87;;;26.50;2201.60;;;;;;5033091;28;20360;-65
2022/01/10 04:55:56;;;;;;;42.57;24.17;;;26.40;2201.60;;;;;;5033300;28;20040;-73
2022/01/10 04:58:23;;;;;;;40.87;23.37;;;26.30;2201.60;;;;;;5033872;28;20022;-73
2022/01/10 05:00:53;;;;;;;40.13;22.63;;;26.30;2201.60;;;;;;5033257;28;20022;-72
2022/01/10 05:03:19;;;;;;;38.07;22.17;;;26.30;2201.60;;;;;;5033432;28;20084;-73
2022/01/10 05:05:46;;;;;;;38.47;21.37;;;26.30;2201.60;;;;;;5033122;28;20028;-64
2022/01/10 05:08:12;;;;;;;35.67;21.63;;;26.20;2201.60;;;;;;5033799;28;20026;-65
2022/01/10 05:10:38;;;;;;;37.17;21.27;;;26.20;2201.60;;;;;;5033410;28;20086;-65
2022/01/10 05:13:03;;;;;;;37.50;21.37;;;26.20;2201.60;;;;;;5033128;28;20104;-65
2022/01/10 05:15:29;;;;;;;33.90;20.17;;;26.20;2201.60;;;;;;5033478;28;20029;-65
2022/01/10 05:17:55;;;;;;;30.13;18.93;;;26.20;2201.60;;;;;;5015401;28;20041;-73
2022/01/10 05:20:21;;;;;;;32.40;19.60;;;26.20;2201.60;;;;;;5033307;28;20060;-66
2022/01/10 05:22:47;;;;;;;30.27;18.97;;;26.20;2201.60;;;;;;5032831;28;20157;-67
2022/01/10 05:25:14;;;;;;;31.87;19.13;;;26.20;2201.60;;;;;;5033265;28;20073;-73
2022/01/10 05:27:39;;;;;;;32.90;19.63;;;26.30;2201.60;;;;;;5033066;28;20421;-72
2022/01/10 05:30:06;;;;;;;36.13;21.20;;;26.20;2201.60;;;;;;5032943;28;20079;-65
2022/01/10 05:32:32;;;;;;;35.70;22.00;;;26.30;2201.60;;;;;;5033264;28;20478;-65
2022/01/10 05:34:58;;;;;;;43.97;25.33;;;26.30;2201.60;;;;;;5034172;28;20493;-65
2022/01/10 05:37:24;;;;;;;38.97;23.93;;;26.30;2201.60;;;;;;5036997;28;20026;-65
2022/01/10 05:39:49;;;;;;;39.47;23.40;;;26.30;2201.60;;;;;;5036629;28;20083;-73
2022/01/10 05:42:18;;;;;;;39.17;23.43;;;26.30;2201.60;;;;;;5036566;28;20021;-65
2022/01/10 05:44:44;;;;;;;38.20;22.40;;;26.30;2201.60;;;;;;5036798;28;20049;-65
2022/01/10 05:47:10;;;;;;;37.93;23.07;;;26.30;2201.60;;;;;;5036552;28;20605;-65
2022/01/10 05:49:37;;;;;;;37.70;23.60;;;26.30;2201.60;;;;;;5036768;28;20030;-65
2022/01/10 05:52:04;;;;;;;38.70;23.70;;;26.20;2201.60;;;;;;5036807;28;20028;-65
2022/01/10 05:54:30;;;;;;;40.30;24.33;;;26.30;2201.60;;;;;;5036673;28;20378;-67
2022/01/10 05:56:56;;;;;;;41.67;23.87;;;26.20;2201.60;;;;;;5036307;28;20029;-65
2022/01/10 05:59:22;;;;;;;40.50;23.67;;;26.20;2201.60;;;;;;5036256;28;20076;-65
2022/01/10 06:01:47;;;;;;;41.50;24.40;;;26.20;2201.60;;;;;;5035597;28;20029;-69
2022/01/10 06:04:13;;;;;;;40.27;24.97;;;26.20;2201.60;;;;;;5036157;28;20039;-72
2022/01/10 06:06:39;;;;;;;44.13;23.97;;;26.10;2201.60;;;;;;5036209;28;20478;-65
2022/01/10 06:09:05;;;;;;;41.50;24.33;;;26.20;2201.60;;;;;;5036142;28;20360;-65
2022/01/10 06:11:31;;;;;;;43.80;24.67;;;26.10;2201.60;;;;;;5036127;28;20033;-65
2022/01/10 06:13:57;;;;;;;45.23;25.60;;;26.20;2201.60;;;;;;5036268;28;20029;-72
2022/01/10 06:16:23;;;;;;;42.33;24.47;;;26.10;2201.60;;;;;;5036024;28;20418;-71
2022/01/10 06:18:49;;;;;;;46.57;24.73;;;26.10;2201.60;;;;;;5035889;28;20080;-73
2022/01/10 06:21:15;;;;;;;42.53;26.10;;;26.10;2201.60;;;;;;5035712;28;20099;-65
2022/01/10 06:23:40;;;;;;;41.60;25.30;;;26.10;2201.60;;;;;;5035764;28;20120;-65
2022/01/10 06:26:06;;;;;;;49.10;27.93;;;26.10;2201.60;;;;;;5036058;28;20044;-65
2022/01/10 06:28:32;;;;;;;39.73;23.23;;;26.10;2201.60;;;;;;5036080;28;20060;-73
2022/01/10 06:30:58;;;;;;;41.07;24.30;;;26.00;2201.60;;;;;;5035763;28;20021;-69
2022/01/10 06:33:24;;;;;;;39.33;23.87;;;26.00;2201.60;;;;;;5036426;28;20037;-65
2022/01/10 06:35:50;;;;;;;40.63;24.17;;;26.00;2201.60;;;;;;5035929;28;20053;-73
2022/01/10 06:38:16;;;;;;;41.57;25.07;;;26.00;2201.60;;;;;;5036380;28;20375;-72
2022/01/10 06:40:41;;;;;;;43.77;25.30;;;26.00;2201.60;;;;;;5035681;28;20026;-73
2022/01/10 06:43:07;;;;;;;42.23;24.83;;;26.00;2201.60;;;;;;5035636;28;20036;-65
2022/01/10 06:45:34;;;;;;;38.97;23.30;;;26.00;2201.60;;;;;;5035690;28;20021;-73
2022/01/10 06:48:00;;;;;;;34.27;21.63;;;25.80;2201.60;;;;;;5034882;28;20378;-65
2022/01/10 06:50:26;;;;;;;40.90;23.70;;;25.80;2201.60;;;;;;5035356;28;20036;-73
2022/01/10 06:52:54;;;;;;;46.50;26.63;;;25.80;2201.60;;;;;;5035906;28;20451;-73
2022/01/10 06:55:20;;;;;;;48.90;27.63;;;25.60;2201.60;;;;;;5035505;28;20036;-65
2022/01/10 06:57:45;;;;;;;38.73;23.70;;;25.70;2201.60;;;;;;5034507;28;20029;-73
2022/01/10 07:00:12;;;;;;;41.67;25.57;;;25.70;2201.60;;;;;;5035037;28;20112;-73
2022/01/10 07:02:38;;;;;;;39.90;23.87;;;25.80;2201.60;;;;;;5015253;28;20033;-67
2022/01/10 07:05:04;;;;;;;40.97;25.77;;;25.80;2201.60;;;;;;5015328;28;20386;-62
2022/01/10 07:07:30;;;;;;;44.73;26.07;;;25.90;2201.60;;;;;;5015217;28;20088;-62
2022/01/10 07:09:56;;;;;;;42.80;26.57;;;25.90;2201.60;;;;;;5015200;28;20030;-62
2022/01/10 07:12:21;;;;;;;52.27;30.93;;;26.00;2201.60;;;;;;5015207;28;20033;-62
2022/01/10 07:14:47;;;;;;;52.63;31.20;;;26.10;2201.60;;;;;;5015308;28;20030;-63
2022/01/10 07:17:14;;;;;;;48.30;29.17;;;26.20;2201.60;;;;;;5014983;28;20022;-62
2022/01/10 07:19:40;;;;;;;50.87;30.30;;;26.30;2201.60;;;;;;5015220;28;20419;-62
2022/01/10 07:22:05;;;;;;;43.00;28.07;;;26.20;2201.60;;;;;;4997236;28;20191;-63
2022/01/10 07:24:32;;;;;;;51.07;30.60;;;26.30;2201.60;;;;;;5014910;28;20053;-62
2022/01/10 07:26:58;;;;;;;49.17;29.70;;;26.30;2201.60;;;;;;5014826;28;20493;-67
2022/01/10 07:29:25;;;;;;;54.23;33.03;;;26.40;2201.60;;;;;;5014790;28;20116;-63
2022/01/10 07:31:51;;;;;;;49.47;28.87;;;26.30;2201.60;;;;;;5014976;28;20057;-63
2022/01/10 07:34:16;;;;;;;51.80;31.40;;;26.30;2201.60;;;;;;5014760;28;20070;-70
2022/01/10 07:36:43;;;;;;;57.70;33.07;;;26.40;2201.60;;;;;;5014718;28;20104;-73
2022/01/10 07:39:10;;;;;;;47.87;28.40;;;26.40;2201.60;;;;;;5014885;28;20430;-73
2022/01/10 07:41:36;;;;;;;57.63;31.50;;;26.50;2201.60;;;;;;5014673;28;20037;-72
2022/01/10 07:44:03;;;;;;;125.07;52.27;;;26.40;2201.60;;;;;;5014540;28;20172;-63
2022/01/10 07:46:29;;;;;;;151.47;63.90;;;26.50;2201.60;;;;;;5014685;28;20022;-64
2022/01/10 07:48:55;;;;;;;79.97;45.40;;;26.50;2201.60;;;;;;5014529;28;20387;-63
2022/01/10 07:51:24;;;;;;;62.10;38.47;;;26.50;2201.60;;;;;;5015398;28;20446;-63
2022/01/10 07:53:51;;;;;;;58.93;37.40;;;51.20;2227.20;;;;;;5014502;28;20080;-63
2022/01/10 07:56:17;;;;;;;41.07;27.37;;;51.40;2227.20;;;;;;5014366;28;20030;-63
2022/01/10 07:58:43;;;;;;;37.60;25.00;;;51.60;2227.20;;;;;;5014607;28;20108;-62
2022/01/10 08:01:09;;;;;;;39.07;24.97;;;51.70;2227.20;;;;;;5027392;28;20352;-61
2022/01/10 08:03:34;;;;;;;49.23;30.83;;;52.00;2227.20;;;;;;5033069;28;20395;-61
2022/01/10 08:06:00;;;;;;;64.13;36.33;;;76.90;2227.20;;;;;;5033761;28;20044;-72
2022/01/10 08:08:26;;;;;;;71.93;37.57;;;77.00;2227.20;;;;;;5033604;28;20093;-61
2022/01/10 08:10:52;;;;;;;48.67;30.17;;;76.90;2227.20;;;;;;5032612;28;20021;-62
2022/01/10 08:13:18;;;;;;;51.37;32.30;;;76.90;2227.20;;;;;;5033550;28;20025;-72
2022/01/10 08:15:44;;;;;;;39.83;25.40;;;52.10;2227.20;;;;;;5032516;28;20087;-62
2022/01/10 08:18:10;;;;;;;47.83;30.43;;;52.10;2227.20;;;;;;5033352;28;20079;-63
2022/01/10 08:20:36;;;;;;;56.13;35.03;;;76.80;2227.20;;;;;;5033215;28;20025;-65
2022/01/10 08:23:02;;;;;;;50.33;28.90;;;52.00;2227.20;;;;;;5033168;28;20041;-61
2022/01/10 08:25:27;;;;;;;84.27;55.17;;;51.90;2227.20;;;;;;5033279;28;20096;-62
2022/01/10 08:27:53;;;;;;;46.10;29.87;;;51.90;2227.20;;;;;;5033449;28;20148;-63
2022/01/10 08:30:19;;;;;;;39.80;26.47;;;51.90;2227.20;;;;;;5033462;28;20163;-66
2022/01/10 08:32:50;;;;;;;43.43;26.33;;;51.90;2227.20;;;;;;5033073;28;20026;-72
2022/01/10 08:35:19;;;;;;;43.77;27.13;;;51.90;2227.20;;;;;;5033408;28;20029;-72
2022/01/10 08:37:45;;;;;;;55.40;30.90;;;52.10;2227.20;;;;;;5033234;28;20036;-62
2022/01/10 08:40:12;;;;;;;65.90;36.37;;;52.10;2227.20;;;;;;5033339;28;20029;-72
2022/01/10 08:42:38;;;;;;;86.73;49.60;;;52.10;2227.20;;;;;;5032902;28;20036;-63
2022/01/10 08:45:08;;;;;;;61.07;39.43;;;76.90;2227.20;;;;;;5033125;28;20029;-63
2022/01/10 08:47:34;;;;;;;58.17;35.37;;;77.00;2227.20;;;;;;5033249;28;20029;-63
2022/01/10 08:50:00;;;;;;;67.13;43.27;;;77.00;2227.20;;;;;;5033206;28;20018;-62
2022/01/10 08:52:26;;;;;;;43.67;26.57;;;77.10;2227.20;;;;;;5033031;28;20381;-72
2022/01/10 08:54:52;;;;;;;53.03;31.17;;;77.20;2227.20;;;;;;5032844;28;20570;-71
2022/01/10 08:57:18;;;;;;;44.50;28.53;;;77.10;2227.20;;;;;;5032901;28;20033;-63
2022/01/10 08:59:45;;;;;;;53.47;32.27;;;77.10;2227.20;;;;;;5032945;28;20512;-62
2022/01/10 09:02:12;;;;;;;49.60;31.70;;;77.10;2227.20;;;;;;5033018;28;20049;-73
2022/01/10 09:04:39;;;;;;;41.27;26.27;;;77.10;2227.20;;;;;;5032853;28;20073;-71
2022/01/10 09:07:08;;;;;;;51.30;31.93;;;77.00;2227.20;;;;;;5032846;28;20026;-67
2022/01/10 09:09:34;;;;;;;38.37;25.50;;;77.20;2227.20;;;;;;5033525;28;20076;-73
2022/01/10 09:12:00;;;;;;;45.77;28.70;;;77.30;2227.20;;;;;;5036881;28;20423;-72
2022/01/10 09:14:26;;;;;;;74.13;41.67;;;77.30;2227.20;;;;;;5036826;28;20025;-72
2022/01/10 09:16:51;;;;;;;55.70;29.97;;;77.30;2227.20;;;;;;5036756;28;20426;-73
2022/01/10 09:19:18;;;;;;;48.63;26.03;;;77.40;2227.20;;;;;;5037050;28;20025;-67
2022/01/10 09:21:44;;;;;;;69.47;32.00;;;77.30;2227.20;;;;;;5036602;28;20528;-62
2022/01/10 09:24:10;;;;;;;41.77;25.20;;;77.50;2227.20;;;;;;5036660;28;20073;-68
2022/01/10 09:26:36;;;;;;;42.60;24.57;;;77.60;2227.20;;;;;;5036596;28;20371;-69
2022/01/10 09:29:02;;;;;;;51.97;30.73;;;77.60;2227.20;;;;;;5036568;28;20060;-70
2022/01/10 09:31:28;;;;;;;47.97;29.97;;;102.40;2227.20;;;;;;5036443;28;20030;-63
2022/01/10 09:33:55;;;;;;;39.77;23.93;;;102.50;2227.20;;;;;;5036781;28;20079;-65
2022/01/10 09:36:24;;;;;;;47.40;28.83;;;102.60;2201.60;;;;;;5036657;28;20040;-70
2022/01/10 09:38:51;;;;;;;49.90;26.77;;;102.80;2227.20;;;;;;5036345;28;20032;-70
2022/01/10 09:41:17;;;;;;;43.10;26.07;;;103.00;2150.40;;;;;;5036265;28;20175;-62
2022/01/10 09:43:50;;;;;;;83.90;37.27;;;103.10;2150.40;;;;;;5036679;28;20116;-61
2022/01/10 09:46:16;;;;;;;58.10;30.87;;;103.30;2099.20;;;;;;5036393;28;20382;-61
2022/01/10 09:48:42;;;;;;;63.80;33.30;;;103.30;2124.80;;;;;;5036115;28;20668;-61
2022/01/10 09:51:09;;;;;;;177.57;60.23;;;128.30;2099.20;;;;;;5036034;28;20104;-65
2022/01/10 09:53:35;;;;;;;109.53;43.90;;;128.40;2073.60;;;;;;5035786;28;20104;-66
2022/01/10 09:56:02;;;;;;;92.60;37.87;;;128.30;2048.00;;;;;;5036047;28;20485;-62
2022/01/10 09:58:28;;;;;;;228.20;83.50;;;128.00;2099.20;;;;;;5036044;28;20121;-69
2022/01/10 10:00:57;;;;;;;63.43;43.77;;;103.30;2073.60;;;;;;5035810;28;20104;-72
2022/01/10 10:03:24;;;;;;;61.53;35.57;;;103.10;2124.80;;;;;;5017705;28;20537;-65
2022/01/10 10:05:57;;;;;;;132.07;52.27;;;103.10;2150.40;;;;;;5035841;28;20029;-61
2022/01/10 10:08:25;;;;;;;108.00;45.05;;;103.30;2124.80;;;;;;5035862;28;20546;-61
2022/01/10 10:10:52;;;;;;;83.03;42.00;;;103.30;2073.60;;;;;;5018313;28;20385;-61
2022/01/10 10:13:19;;;;;;;90.97;43.90;;;103.30;2099.20;;;;;;5036087;28;20026;-60
2022/01/10 10:15:46;;;;;;;49.73;32.27;;;103.20;2073.60;;;;;;5036000;28;20083;-62
2022/01/10 10:18:17;;;;;;;75.70;44.17;;;128.10;2048.00;;;;;;5035898;28;20017;-61
2022/01/10 10:20:44;;;;;;;83.80;50.57;;;128.20;2022.40;;;;;;5034323;28;20026;-68
2022/01/10 10:23:14;;;;;;;142.23;68.47;;;128.30;2048.00;;;;;;5034249;28;20041;-68
2022/01/10 10:25:54;;;;;;;66.83;36.63;;;128.80;2252.80;;;;;;5035845;28;20076;-65
2022/01/10 10:28:21;;;;;;;62.87;31.77;;;153.70;1945.60;;;;;;5015384;28;20513;-68
2022/01/10 10:30:47;;;;;;;115.17;51.43;;;154.10;1894.40;;;;;;5035802;28;20026;-64
2022/01/10 10:33:17;;;;;;;141.33;60.33;;;179.30;1868.80;;;;;;5017869;28;20025;-63
2022/01/10 10:35:44;;;;;;;142.30;59.97;;;179.80;1817.60;;;;;;5035834;28;20478;-61
2022/01/10 10:38:11;;;;;;;109.80;51.13;;;180.10;1766.40;;;;;;5035481;28;20037;-61
2022/01/10 10:40:44;;;;;;;90.97;44.17;;;179.90;1766.40;;;;;;5035807;28;20103;-61
2022/01/10 10:43:10;;;;;;;99.95;50.95;;;179.60;1792.00;;;;;;5035338;28;20064;-60
2022/01/10 10:45:37;;;;;;;314.00;154.13;;;179.60;1766.40;;;;;;5035474;28;20486;-61
2022/01/10 10:48:08;;;;;;;305.70;153.30;;;154.40;1817.60;;;;;;5035378;28;20022;-61
2022/01/10 10:50:42;;;;;;;332.53;164.87;;;154.00;1868.80;;;;;;5035585;28;20044;-61
2022/01/10 10:53:13;;;;;;;174.30;75.40;;;153.60;1945.60;;;;;;5035167;28;20104;-61
2022/01/10 10:55:42;;;;;;;131.63;62.97;;;153.70;1971.20;;;;;;5035214;28;20504;-61
2022/01/10 10:58:09;;;;;;;135.40;61.43;;;128.80;1971.20;;;;;;5035081;28;20029;-61
2022/01/10 11:00:36;;;;;;;163.23;68.70;;;128.20;2022.40;;;;;;5034999;28;20028;-61
2022/01/10 11:03:02;;;;;;;120.93;53.47;;;103.30;2048.00;;;;;;5035033;28;20428;-62
2022/01/10 11:05:29;;;;;;;61.70;34.83;;;103.00;2099.20;;;;;;5017319;28;20386;-61
2022/01/10 11:07:56;;;;;;;89.37;48.23;;;102.80;2124.80;;;;;;5035089;28;20025;-65
2022/01/10 11:10:24;;;;;;;110.60;52.63;;;102.60;2150.40;;;;;;5035071;28;20034;-61
2022/01/10 11:12:58;;;;;;;74.17;42.53;;;102.40;2176.00;;;;;;5035152;28;20479;-61
2022/01/10 11:15:25;;;;;;;92.47;49.80;;;77.70;2201.60;;;;;;5035015;28;20026;-60
2022/01/10 11:17:53;;;;;;;82.83;47.27;;;77.50;2227.20;;;;;;5035089;28;20021;-60
2022/01/10 11:20:22;;;;;;;77.83;42.33;;;77.30;2227.20;;;;;;5034785;28;20551;-60
2022/01/10 11:22:54;;;;;;;86.97;46.37;;;77.40;2227.20;;;;;;5034514;28;20141;-59
2022/01/10 11:25:28;;;;;;;89.93;49.27;;;77.30;2227.20;;;;;;5035303;28;20406;-61
2022/01/10 11:28:06;;;;;;;67.83;40.07;;;77.30;2227.20;;;;;;5034698;28;20475;-61
2022/01/10 11:30:39;;;;;;;69.73;41.13;;;77.20;2227.20;;;;;;5034649;28;20124;-60
2022/01/10 11:33:17;;;;;;;101.38;44.72;;;77.20;2227.20;;;;;;5036021;28;20394;-66
2022/01/10 11:35:46;;;;;;;71.47;40.50;;;77.20;2227.20;;;;;;5035890;28;20030;-61
2022/01/10 11:38:19;;;;;;;79.97;48.87;;;77.30;2227.20;;;;;;5034749;28;20102;-61
2022/01/10 11:40:48;;;;;;;65.50;36.92;;;77.20;2227.20;;;;;;5035149;28;20053;-60
2022/01/10 11:43:34;;;;;;;95.23;54.27;;;77.30;2227.20;;;;;;5034538;28;20029;-60
2022/01/10 11:46:08;;;;;;;137.23;79.63;;;77.40;2227.20;;;;;;5034294;28;20029;-61
2022/01/10 11:48:50;;;;;;;200.60;110.47;;;77.50;2227.20;;;;;;5034268;28;20026;-64
2022/01/10 11:51:58;;;;;;;143.20;77.80;;;77.50;2227.20;;;;;;5033859;28;20021;-62
2022/01/10 11:54:28;;;;;;;145.03;76.60;;;77.50;2227.20;;;;;;4954029;29;20074;-66
2022/01/10 11:57:04;;;;;;;247.53;128.37;;;77.50;2227.20;;;;;;4954251;29;20074;-63
2022/01/10 11:59:30;;;;;;;781.60;460.10;;;77.30;2227.20;;;;;;4952751;29;20031;-65
2022/01/10 12:01:58;;;;;;;243.07;122.70;;;77.20;2227.20;;;;;;4953835;29;20400;-61
2022/01/10 12:04:26;;;;;;;310.80;161.37;;;77.00;2227.20;;;;;;4953741;29;20079;-61
2022/01/10 12:06:53;;;;;;;841.57;514.20;;;77.10;2227.20;;;;;;4953775;29;20555;-66
2022/01/10 12:09:19;;;;;;;228.73;128.23;;;77.10;2227.20;;;;;;4953906;29;20035;-61
2022/01/10 12:11:46;;;;;;;219.97;120.17;;;77.10;2227.20;;;;;;4953775;29;20489;-61
2022/01/10 12:14:13;;;;;;;332.20;188.03;;;77.00;2227.20;;;;;;4953784;29;20023;-65
2022/01/10 12:16:39;;;;;;;271.57;143.63;;;77.00;2227.20;;;;;;4953713;29;20378;-61
2022/01/10 12:19:07;;;;;;;194.40;113.90;;;76.90;2227.20;;;;;;4954591;29;20034;-61